createdAt,value
2018-11-14T00:01:56.604Z,11.03
2018-11-14T00:04:26.684Z,12.33
2018-11-14T00:06:56.826Z,4.63
2018-11-14T00:09:26.976Z,8.87
2018-11-14T00:11:57.101Z,9.67
2018-11-14T00:14:27.252Z,8.70
2018-11-14T00:16:57.353Z,10.23
2018-11-14T00:19:27.930Z,4.53
2018-11-14T00:21:58.127Z,11.63
2018-11-14T00:24:28.259Z,5.20
2018-11-14T00:26:58.617Z,14.30
2018-11-14T00:29:28.938Z,8.23
2018-11-14T00:31:59.027Z,10.43
2018-11-14T00:34:29.278Z,8.27
2018-11-14T00:36:59.459Z,10.23
2018-11-14T00:39:29.385Z,13.10
2018-11-14T00:41:59.607Z,13.33
2018-11-14T00:44:29.901Z,15.50
2018-11-14T00:47:00.241Z,11.73
2018-11-14T00:49:30.458Z,9.80
2018-11-14T00:52:00.599Z,9.10
2018-11-14T00:54:30.717Z,9.60
2018-11-14T00:57:01.112Z,13.10
2018-11-14T00:59:31.143Z,7.43
2018-11-14T01:02:01.927Z,9.77
2018-11-14T01:04:31.911Z,8.07
2018-11-14T01:07:02.141Z,4.93
2018-11-14T01:09:32.447Z,10.27
2018-11-14T01:12:02.391Z,10.90
2018-11-14T01:14:32.549Z,7.10
2018-11-14T01:17:02.609Z,9.97
2018-11-14T01:19:32.511Z,9.80
2018-11-14T01:22:02.603Z,19.87
2018-11-14T01:24:32.577Z,17.20
2018-11-14T01:27:02.783Z,12.73
2018-11-14T01:29:32.655Z,19.63
2018-11-14T01:32:02.719Z,17.67
2018-11-14T01:34:32.872Z,15.63
2018-11-14T01:37:02.924Z,4.13
2018-11-14T01:39:32.986Z,8.00
2018-11-14T01:42:03.253Z,14.37
2018-11-14T01:44:33.393Z,20.03
2018-11-14T01:47:03.377Z,10.83
2018-11-14T01:49:33.478Z,16.57
2018-11-14T01:52:03.654Z,7.40
2018-11-14T01:54:33.863Z,14.67
2018-11-14T01:57:03.957Z,12.17
2018-11-14T01:59:33.933Z,11.13
2018-11-14T02:02:04.061Z,21.07
2018-11-14T02:04:34.201Z,10.03
2018-11-14T02:07:04.168Z,11.83
2018-11-14T02:09:34.039Z,14.40
2018-11-14T02:12:04.073Z,10.57
2018-11-14T02:14:34.178Z,10.07
2018-11-14T02:17:04.428Z,14.97
2018-11-14T02:19:34.537Z,12.03
2018-11-14T02:22:04.563Z,9.10
2018-11-14T02:24:34.803Z,8.23
2018-11-14T02:27:04.926Z,10.93
2018-11-14T02:29:34.795Z,9.87
2018-11-14T02:32:04.935Z,9.10
2018-11-14T02:34:34.950Z,19.50
2018-11-14T02:37:05.170Z,14.70
2018-11-14T02:39:36.174Z,14.30
2018-11-14T02:42:06.607Z,9.73
2018-11-14T02:44:36.928Z,16.60
2018-11-14T02:47:07.148Z,9.30
2018-11-14T02:49:37.583Z,10.57
2018-11-14T02:52:07.568Z,7.13
2018-11-14T02:54:37.830Z,8.40
2018-11-14T02:57:07.998Z,16.93
2018-11-14T02:59:38.264Z,15.77
2018-11-14T03:02:08.324Z,10.77
2018-11-14T03:04:38.365Z,11.67
2018-11-14T03:07:08.624Z,12.43
2018-11-14T03:09:38.655Z,5.87
2018-11-14T03:12:08.806Z,12.00
2018-11-14T03:14:38.910Z,7.57
2018-11-14T03:17:09.128Z,10.67
2018-11-14T03:19:38.997Z,15.30
2018-11-14T03:22:09.046Z,5.97
2018-11-14T03:24:39.267Z,9.57
2018-11-14T03:27:09.227Z,19.00
2018-11-14T03:29:39.468Z,9.80
2018-11-14T03:32:09.572Z,5.73
2018-11-14T03:34:39.751Z,9.00
2018-11-14T03:37:09.645Z,7.57
2018-11-14T03:39:39.756Z,6.07
2018-11-14T03:42:09.752Z,11.90
2018-11-14T03:44:40.692Z,8.13
2018-11-14T03:47:10.860Z,10.67
2018-11-14T03:49:41.076Z,14.53
2018-11-14T03:52:11.184Z,5.10
2018-11-14T03:54:41.069Z,9.70
2018-11-14T03:57:11.078Z,6.77
2018-11-14T03:59:41.333Z,10.17
2018-11-14T04:02:11.461Z,8.50
2018-11-14T04:04:41.455Z,6.13
2018-11-14T04:07:11.563Z,11.63
2018-11-14T04:09:41.827Z,5.77
2018-11-14T04:12:11.968Z,7.73
2018-11-14T04:14:41.835Z,10.10
2018-11-14T04:17:11.847Z,14.77
2018-11-14T04:19:42.102Z,3.50
2018-11-14T04:22:12.221Z,2.17
2018-11-14T04:24:42.357Z,2.80
2018-11-14T04:27:12.519Z,7.60
2018-11-14T04:29:42.651Z,10.63
2018-11-14T04:32:12.952Z,8.77
2018-11-14T04:34:43.238Z,7.90
2018-11-14T04:37:13.351Z,6.10
2018-11-14T04:39:43.451Z,10.40
2018-11-14T04:42:13.561Z,16.63
2018-11-14T04:44:43.801Z,7.83
2018-11-14T04:47:13.685Z,7.63
2018-11-14T04:49:43.632Z,11.93
2018-11-14T04:52:13.592Z,8.27
2018-11-14T04:54:43.864Z,13.97
2018-11-14T04:57:14.011Z,10.30
2018-11-14T04:59:43.986Z,7.90
2018-11-14T05:02:14.224Z,11.00
2018-11-14T05:04:44.393Z,11.07
2018-11-14T05:07:14.496Z,5.53
2018-11-14T05:09:44.796Z,9.30
2018-11-14T05:12:14.773Z,11.20
2018-11-14T05:14:44.886Z,14.00
2018-11-14T05:17:15.174Z,13.20
2018-11-14T05:19:45.249Z,14.27
2018-11-14T05:22:15.261Z,9.93
2018-11-14T05:24:45.473Z,7.63
2018-11-14T05:27:15.623Z,14.77
2018-11-14T05:29:45.728Z,67.43
2018-11-14T05:32:15.881Z,148.00
2018-11-14T05:34:45.853Z,127.83
2018-11-14T05:37:16.237Z,108.73
2018-11-14T05:39:46.672Z,97.87
2018-11-14T05:42:16.853Z,85.93
2018-11-14T05:44:46.988Z,95.33
2018-11-14T05:47:16.918Z,72.13
2018-11-14T05:49:47.052Z,72.53
2018-11-14T05:52:17.328Z,63.03
2018-11-14T05:54:47.468Z,56.33
2018-11-14T05:57:17.514Z,54.90
2018-11-14T05:59:47.567Z,50.27
2018-11-14T06:02:17.572Z,45.67
2018-11-14T06:04:47.673Z,39.23
2018-11-14T06:07:17.757Z,33.73
2018-11-14T06:09:47.814Z,42.10
2018-11-14T06:12:17.828Z,33.10
2018-11-14T06:14:48.086Z,28.93
2018-11-14T06:17:18.218Z,29.13
2018-11-14T06:19:48.344Z,28.90
2018-11-14T06:22:18.443Z,32.77
2018-11-14T06:24:48.737Z,22.27
2018-11-14T06:27:19.842Z,33.03
2018-11-14T06:29:50.294Z,20.27
2018-11-14T06:32:20.314Z,21.00
2018-11-14T06:34:50.526Z,29.57
2018-11-14T06:37:20.553Z,28.20
2018-11-14T06:39:50.830Z,25.80
2018-11-14T06:42:20.694Z,25.17
2018-11-14T06:44:50.715Z,23.03
2018-11-14T06:47:20.734Z,29.80
2018-11-14T06:49:51.106Z,23.80
2018-11-14T06:52:21.066Z,32.70
2018-11-14T06:54:51.319Z,33.50
2018-11-14T06:57:21.760Z,29.07
2018-11-14T06:59:52.330Z,26.10
2018-11-14T07:02:27.318Z,32.00
2018-11-14T07:04:52.687Z,33.67
2018-11-14T07:07:22.930Z,30.17
2018-11-14T07:09:55.073Z,29.67
2018-11-14T07:12:29.004Z,44.23
2018-11-14T07:14:59.400Z,38.10
2018-11-14T07:17:31.124Z,33.97
2018-11-14T07:20:01.890Z,29.40
2018-11-14T07:22:33.274Z,31.93
2018-11-14T07:25:04.304Z,36.47
2018-11-14T07:27:34.480Z,34.90
2018-11-14T07:30:05.456Z,32.13
2018-11-14T07:32:35.901Z,40.03
2018-11-14T07:35:06.196Z,51.60
2018-11-14T07:37:36.266Z,43.73
2018-11-14T07:40:09.881Z,39.70
2018-11-14T07:42:40.261Z,42.30
2018-11-14T07:45:12.444Z,48.27
2018-11-14T07:47:42.729Z,34.20
2018-11-14T07:50:14.241Z,58.47
2018-11-14T07:52:44.837Z,47.20
2018-11-14T07:55:14.842Z,53.77
2018-11-14T07:57:45.149Z,48.83
2018-11-14T08:00:17.355Z,57.07
2018-11-14T08:02:47.447Z,58.30
2018-11-14T08:05:17.574Z,44.30
2018-11-14T08:07:47.518Z,60.97
2018-11-14T08:10:17.680Z,44.83
2018-11-14T08:12:47.857Z,46.37
2018-11-14T08:15:17.862Z,45.53
2018-11-14T08:17:47.677Z,55.33
2018-11-14T08:20:17.752Z,51.73
2018-11-14T08:22:47.888Z,56.40
2018-11-14T08:25:18.176Z,66.00
2018-11-14T08:27:49.061Z,49.60
2018-11-14T08:30:19.654Z,43.10
2018-11-14T08:32:49.780Z,56.50
2018-11-14T08:35:19.954Z,54.77
2018-11-14T08:37:50.248Z,58.10
2018-11-14T08:40:20.390Z,57.30
2018-11-14T08:42:50.666Z,68.67
2018-11-14T08:45:21.245Z,55.43
2018-11-14T08:47:51.351Z,62.23
2018-11-14T08:50:21.800Z,74.77
2018-11-14T08:52:52.243Z,62.63
2018-11-14T08:55:22.324Z,62.13
2018-11-14T08:57:53.028Z,59.10
2018-11-14T09:00:27.169Z,56.67
2018-11-14T09:02:57.530Z,66.17
2018-11-14T09:05:27.507Z,64.43
2018-11-14T09:07:57.779Z,64.07
2018-11-14T09:10:28.219Z,51.00
2018-11-14T09:12:58.103Z,57.53
2018-11-14T09:15:28.212Z,61.43
2018-11-14T09:17:58.460Z,56.37
2018-11-14T09:20:29.497Z,59.70
2018-11-14T09:22:59.754Z,56.60
2018-11-14T09:25:31.156Z,52.80
2018-11-14T09:28:01.993Z,55.87
2018-11-14T09:30:32.552Z,62.53
2018-11-14T09:33:03.083Z,55.33
2018-11-14T09:35:33.130Z,51.70
2018-11-14T09:38:03.477Z,62.27
2018-11-14T09:40:33.521Z,57.33
2018-11-14T09:43:03.679Z,60.17
2018-11-14T09:45:34.732Z,61.27
2018-11-14T09:48:04.994Z,53.13
2018-11-14T09:50:35.065Z,57.20
2018-11-14T09:53:06.168Z,58.80
2018-11-14T09:55:36.257Z,54.10
2018-11-14T09:58:06.980Z,44.73
2018-11-14T10:00:37.164Z,53.07
2018-11-14T10:03:21.906Z,53.67
2018-11-14T10:05:52.157Z,53.17
2018-11-14T10:08:22.227Z,50.77
2018-11-14T10:10:52.140Z,53.53
2018-11-14T10:13:22.453Z,50.87
2018-11-14T10:18:37.031Z,56.97
2018-11-14T10:21:07.474Z,59.63
2018-11-14T10:23:37.525Z,58.30
2018-11-14T10:26:07.673Z,59.63
2018-11-14T10:28:37.726Z,62.17
2018-11-14T10:31:07.751Z,57.50
2018-11-14T10:33:37.938Z,56.80
2018-11-14T10:36:08.103Z,63.80
2018-11-14T10:38:38.219Z,55.80
2018-11-14T10:41:08.204Z,65.80
2018-11-14T10:43:38.457Z,60.97
2018-11-14T10:46:08.726Z,53.60
2018-11-14T10:48:38.833Z,62.83
2018-11-14T10:51:09.062Z,61.30
2018-11-14T10:53:38.963Z,65.37
2018-11-14T10:56:10.413Z,63.63
2018-11-14T10:58:42.118Z,64.00
2018-11-14T11:01:18.623Z,73.73
2018-11-14T11:03:55.407Z,67.37
2018-11-14T11:06:36.757Z,62.23
2018-11-14T11:09:15.024Z,66.37
2018-11-14T11:11:51.539Z,68.50
2018-11-14T11:14:28.189Z,72.03
2018-11-14T11:17:04.757Z,74.83
2018-11-14T11:19:37.423Z,81.27
2018-11-14T11:22:09.531Z,76.07
2018-11-14T11:24:42.207Z,70.20
2018-11-14T11:27:14.666Z,75.60
2018-11-14T11:29:46.412Z,86.87
2018-11-14T11:32:18.351Z,76.03
2018-11-14T11:34:50.041Z,73.47
2018-11-14T11:37:21.903Z,84.93
2018-11-14T11:39:53.862Z,83.33
2018-11-14T11:42:25.506Z,82.37
2018-11-14T11:44:57.378Z,83.43
2018-11-14T11:47:29.051Z,70.63
2018-11-14T11:50:00.828Z,83.73
2018-11-14T11:52:33.274Z,80.33
2018-11-14T11:55:05.227Z,69.77
2018-11-14T11:57:36.950Z,79.33
2018-11-14T12:00:14.001Z,77.43
2018-11-14T12:02:45.899Z,68.50
2018-11-14T12:05:17.849Z,72.67
2018-11-14T12:07:49.588Z,65.10
2018-11-14T12:10:21.324Z,85.50
2018-11-14T12:12:53.262Z,75.33
2018-11-14T12:15:25.092Z,75.60
2018-11-14T12:17:56.973Z,81.37
2018-11-14T12:20:29.096Z,73.13
2018-11-14T12:23:01.622Z,73.67
2018-11-14T12:25:33.355Z,78.93
2018-11-14T12:28:05.420Z,76.43
2018-11-14T12:30:37.340Z,72.13
2018-11-14T12:33:09.271Z,67.33
2018-11-14T12:35:41.102Z,72.27
2018-11-14T12:38:13.048Z,76.00
2018-11-14T12:40:45.125Z,75.90
2018-11-14T12:43:16.871Z,71.43
2018-11-14T12:45:48.695Z,76.20
2018-11-14T12:48:20.476Z,67.93
2018-11-14T12:50:52.115Z,70.67
2018-11-14T12:53:23.816Z,73.90
2018-11-14T12:55:55.751Z,83.80
2018-11-14T12:58:27.790Z,76.33
2018-11-14T13:01:00.088Z,63.27
2018-11-14T13:03:32.246Z,63.50
2018-11-14T13:06:04.144Z,69.37
2018-11-14T13:08:35.837Z,64.10
2018-11-14T13:11:07.741Z,61.50
2018-11-14T13:13:44.346Z,61.00
2018-11-14T13:16:16.801Z,76.70
2018-11-14T13:18:48.437Z,57.60
2018-11-14T13:21:20.401Z,60.90
2018-11-14T13:23:52.179Z,60.47
2018-11-14T13:26:24.083Z,75.83
2018-11-14T13:28:56.775Z,70.00
2018-11-14T13:31:29.136Z,59.33
2018-11-14T13:34:00.886Z,63.97
2018-11-14T13:36:32.773Z,68.17
2018-11-14T13:39:05.385Z,69.03
2018-11-14T13:41:37.257Z,65.03
2018-11-14T13:44:09.051Z,69.23
2018-11-14T13:46:41.023Z,66.27
2018-11-14T13:49:13.117Z,72.23
2018-11-14T13:51:44.683Z,64.33
2018-11-14T13:54:17.014Z,72.17
2018-11-14T13:56:50.119Z,60.17
2018-11-14T13:59:38.654Z,76.07
2018-11-14T14:02:10.573Z,75.37
2018-11-14T14:04:42.152Z,73.37
2018-11-14T14:07:14.076Z,73.93
2018-11-14T14:09:47.932Z,73.30
2018-11-14T14:12:21.409Z,76.13
2018-11-14T14:14:54.097Z,84.10
2018-11-14T14:17:26.289Z,79.67
2018-11-14T14:19:59.485Z,87.27
2018-11-14T14:22:30.985Z,75.77
2018-11-14T14:25:02.785Z,77.20
2018-11-14T14:27:34.866Z,93.47
2018-11-14T14:30:08.444Z,83.23
2018-11-14T14:32:41.955Z,97.50
2018-11-14T14:35:15.071Z,88.43
2018-11-14T14:37:48.351Z,97.80
2018-11-14T14:40:22.670Z,86.20
2018-11-14T14:42:54.209Z,79.63
2018-11-14T14:45:27.299Z,101.17
2018-11-14T14:47:59.600Z,101.47
2018-11-14T14:50:34.465Z,103.63
2018-11-14T14:53:06.843Z,88.93
2018-11-14T14:55:40.177Z,91.47
2018-11-14T14:58:23.529Z,96.20
2018-11-14T15:00:55.673Z,86.17
2018-11-14T15:03:35.914Z,91.30
2018-11-14T15:06:07.921Z,92.90
2018-11-14T15:08:40.348Z,82.27
2018-11-14T15:11:12.112Z,92.13
2018-11-14T15:13:45.404Z,79.27
2018-11-14T15:16:18.046Z,84.67
2018-11-14T15:18:49.466Z,90.13
2018-11-14T15:21:22.597Z,95.87
2018-11-14T15:23:56.651Z,80.23
2018-11-14T15:26:30.976Z,84.20
2018-11-14T15:29:04.449Z,84.73
2018-11-14T15:31:51.748Z,85.93
2018-11-14T15:34:24.241Z,79.30
2018-11-14T15:36:56.555Z,83.30
2018-11-14T15:39:28.977Z,80.80
2018-11-14T15:42:02.199Z,68.83
2018-11-14T15:44:33.634Z,79.40
2018-11-14T15:47:06.394Z,78.67
2018-11-14T15:49:37.868Z,70.00
2018-11-14T15:52:11.254Z,71.33
2018-11-14T15:54:44.909Z,77.53
2018-11-14T15:57:20.719Z,64.80
2018-11-14T15:59:52.648Z,62.43
2018-11-14T16:02:25.870Z,57.90
2018-11-14T16:04:58.629Z,59.63
2018-11-14T16:07:46.724Z,62.87
2018-11-14T16:13:35.772Z,52.97
2018-11-14T16:16:10.196Z,62.80
2018-11-14T16:18:42.649Z,60.97
2018-11-14T16:21:17.402Z,55.67
2018-11-14T16:23:55.934Z,62.60
2018-11-14T16:26:27.491Z,55.13
2018-11-14T16:29:02.582Z,74.87
2018-11-14T16:31:35.302Z,62.20
2018-11-14T16:34:10.416Z,60.30
2018-11-14T16:36:42.631Z,67.40
2018-11-14T16:39:16.009Z,61.43
2018-11-14T16:41:48.422Z,59.20
2018-11-14T16:44:21.605Z,67.33
2018-11-14T16:46:56.380Z,68.73
2018-11-14T16:49:36.383Z,61.30
2018-11-14T16:52:09.621Z,69.70
2018-11-14T16:54:42.173Z,59.90
2018-11-14T16:57:25.150Z,68.93
2018-11-14T16:59:59.892Z,63.90
2018-11-14T17:02:33.487Z,63.00
2018-11-14T17:05:17.889Z,68.83
2018-11-14T17:07:51.687Z,61.50
2018-11-14T17:10:26.753Z,72.07
2018-11-14T17:13:03.259Z,62.07
2018-11-14T17:15:37.602Z,67.43
2018-11-14T17:18:12.237Z,64.53
2018-11-14T17:20:48.703Z,69.60
2018-11-14T17:23:22.184Z,61.00
2018-11-14T17:26:02.832Z,60.57
2018-11-14T17:28:38.778Z,63.40
2018-11-14T17:31:15.161Z,68.30
2018-11-14T17:33:53.494Z,59.83
2018-11-14T17:36:34.492Z,68.43
2018-11-14T17:39:15.502Z,63.23
2018-11-14T17:41:52.903Z,61.23
2018-11-14T17:44:26.535Z,65.57
2018-11-14T17:46:58.485Z,75.43
2018-11-14T17:49:30.521Z,66.40
2018-11-14T17:52:26.230Z,70.37
2018-11-14T17:55:02.886Z,66.40
2018-11-14T17:57:37.479Z,62.50
2018-11-14T18:00:12.004Z,64.27
2018-11-14T18:02:50.987Z,74.93
2018-11-14T18:05:32.211Z,73.53
2018-11-14T18:08:08.306Z,60.73
2018-11-14T18:10:52.111Z,72.23
2018-11-14T18:13:25.651Z,80.60
2018-11-14T18:15:59.299Z,72.17
2018-11-14T18:18:36.215Z,71.33
2018-11-14T18:21:09.762Z,76.70
2018-11-14T18:23:45.850Z,69.83
2018-11-14T18:26:20.677Z,64.37
2018-11-14T18:28:58.235Z,65.30
2018-11-14T18:31:59.287Z,65.43
2018-11-14T18:34:35.337Z,66.23
2018-11-14T18:37:10.047Z,64.97
2018-11-14T18:39:44.197Z,67.30
2018-11-14T18:42:21.880Z,64.00
2018-11-14T18:44:57.145Z,59.20
2018-11-14T18:47:34.438Z,63.13
2018-11-14T18:50:09.864Z,64.80
2018-11-14T18:52:44.157Z,65.53
2018-11-14T18:55:17.086Z,71.87
2018-11-14T18:57:49.350Z,60.07
2018-11-14T19:00:26.969Z,60.63
2018-11-14T19:03:03.268Z,59.43
2018-11-14T19:05:36.134Z,68.87
2018-11-14T19:08:10.751Z,65.57
2018-11-14T19:10:57.691Z,67.27
2018-11-14T19:13:31.490Z,58.23
2018-11-14T19:16:05.046Z,59.93
2018-11-14T19:18:41.324Z,56.13
2018-11-14T19:21:15.994Z,61.87
2018-11-14T19:23:55.080Z,57.50
2018-11-14T19:26:32.230Z,55.63
2018-11-14T19:29:07.188Z,60.03
2018-11-14T19:31:39.764Z,53.90
2018-11-14T19:34:57.676Z,55.10
2018-11-14T19:37:33.792Z,57.80
2018-11-14T19:40:32.351Z,64.43
2018-11-14T19:43:09.003Z,47.50
2018-11-14T19:45:44.826Z,49.70
2018-11-14T19:48:22.135Z,51.80
2018-11-14T19:50:56.375Z,59.17
2018-11-14T19:53:29.897Z,51.50
2018-11-14T19:56:01.788Z,41.23
2018-11-14T19:58:36.524Z,46.73
2018-11-14T20:01:09.207Z,46.50
2018-11-14T20:03:44.848Z,48.63
2018-11-14T20:06:17.049Z,55.43
2018-11-14T20:08:48.769Z,56.13
2018-11-14T20:11:23.313Z,45.10
2018-11-14T20:13:57.805Z,42.43
2018-11-14T20:16:41.796Z,46.53
2018-11-14T20:19:23.189Z,47.07
2018-11-14T20:21:56.914Z,54.13
2018-11-14T20:24:35.334Z,45.20
2018-11-14T20:27:08.164Z,46.10
2018-11-14T20:29:54.836Z,47.67
2018-11-14T20:32:31.584Z,43.17
2018-11-14T20:35:05.869Z,42.70
2018-11-14T20:37:40.770Z,45.60
2018-11-14T20:40:15.636Z,37.63
2018-11-14T20:42:47.963Z,47.60
2018-11-14T20:45:33.914Z,42.87
2018-11-14T20:48:06.983Z,38.53
2018-11-14T20:50:44.418Z,41.23
2018-11-14T20:53:18.979Z,41.20
2018-11-14T20:55:54.225Z,43.10
2018-11-14T20:58:28.820Z,44.60
2018-11-14T21:01:04.952Z,40.37
2018-11-14T21:03:40.411Z,40.80
2018-11-14T21:06:15.453Z,44.60
2018-11-14T21:09:02.905Z,40.47
2018-11-14T21:11:36.138Z,38.57
2018-11-14T21:14:08.160Z,38.47
2018-11-14T21:16:45.826Z,32.40
2018-11-14T21:19:21.196Z,45.03
2018-11-14T21:21:58.202Z,35.47
2018-11-14T21:24:31.421Z,41.10
2018-11-14T21:27:04.345Z,41.83
2018-11-14T21:29:38.883Z,42.23
2018-11-14T21:32:15.595Z,42.80
2018-11-14T21:34:54.264Z,37.63
2018-11-14T21:37:27.221Z,45.17
2018-11-14T21:40:15.776Z,39.30
2018-11-14T21:42:51.830Z,33.67
2018-11-14T21:45:25.588Z,34.07
2018-11-14T21:48:04.690Z,37.27
2018-11-14T21:50:37.098Z,36.23
2018-11-14T21:53:10.126Z,32.53
2018-11-14T21:55:41.957Z,37.13
2018-11-14T21:58:14.200Z,39.20
2018-11-14T22:00:48.176Z,34.23
2018-11-14T22:03:21.146Z,35.17
2018-11-14T22:05:54.932Z,34.50
2018-11-14T22:08:27.491Z,42.67
2018-11-14T22:10:58.876Z,34.03
2018-11-14T22:13:32.088Z,36.00
2018-11-14T22:16:14.943Z,27.77
2018-11-14T22:18:49.023Z,29.73
2018-11-14T22:21:22.999Z,31.30
2018-11-14T22:23:55.388Z,29.77
2018-11-14T22:26:29.309Z,32.70
2018-11-14T22:29:02.598Z,34.40
2018-11-14T22:31:35.974Z,34.63
2018-11-14T22:34:07.433Z,31.27
2018-11-14T22:36:38.789Z,36.10
2018-11-14T22:39:12.394Z,31.57
2018-11-14T22:41:44.987Z,28.33
2018-11-14T22:44:18.257Z,25.90
2018-11-14T22:46:51.305Z,26.67
2018-11-14T22:49:25.270Z,27.77
2018-11-14T22:52:10.226Z,32.23
2018-11-14T22:54:42.616Z,32.53
2018-11-14T22:57:17.848Z,27.10
2018-11-14T22:59:50.362Z,27.27
2018-11-14T23:02:24.157Z,28.90
